createdAt,value
2022-08-30T00:00:16.753Z,14.94
2022-08-30T00:02:44.966Z,14.78
2022-08-30T00:05:13.400Z,14.60
2022-08-30T00:07:42.863Z,14.58
2022-08-30T00:10:11.620Z,14.47
2022-08-30T00:12:39.755Z,14.46
2022-08-30T00:15:11.812Z,14.47
2022-08-30T00:17:40.845Z,14.50
2022-08-30T00:20:12.585Z,14.51
2022-08-30T00:22:41.156Z,14.51
2022-08-30T00:25:09.903Z,14.71
2022-08-30T00:27:37.817Z,14.72
2022-08-30T00:30:07.074Z,14.71
2022-08-30T00:32:36.564Z,14.76
2022-08-30T00:35:06.930Z,14.83
2022-08-30T00:37:35.467Z,14.85
2022-08-30T00:40:05.386Z,14.88
2022-08-30T00:42:34.651Z,14.88
2022-08-30T00:45:14.721Z,14.94
2022-08-30T00:47:45.194Z,14.93
2022-08-30T00:50:15.254Z,14.99
2022-08-30T00:52:47.536Z,14.99
2022-08-30T00:55:19.170Z,15.02
2022-08-30T00:57:48.774Z,15.04
2022-08-30T01:00:19.079Z,15.17
2022-08-30T01:02:48.922Z,15.15
2022-08-30T01:05:20.555Z,15.17
2022-08-30T01:07:48.422Z,15.15
2022-08-30T01:10:18.993Z,15.16
2022-08-30T01:12:48.582Z,15.04
2022-08-30T01:15:16.928Z,14.90
2022-08-30T01:17:49.732Z,14.93
2022-08-30T01:20:25.132Z,14.94
2022-08-30T01:23:18.453Z,14.90
2022-08-30T01:25:48.583Z,14.85
2022-08-30T01:28:22.359Z,14.75
2022-08-30T01:30:50.710Z,14.69
2022-08-30T01:33:20.119Z,14.63
2022-08-30T01:35:53.735Z,14.70
2022-08-30T01:38:27.157Z,14.77
2022-08-30T01:40:59.523Z,14.63
2022-08-30T01:43:29.042Z,14.61
2022-08-30T01:45:57.260Z,14.60
2022-08-30T01:48:30.860Z,14.55
2022-08-30T01:50:59.618Z,14.48
2022-08-30T01:53:30.433Z,14.48
2022-08-30T01:55:58.373Z,14.34
2022-08-30T01:58:26.361Z,14.52
2022-08-30T02:00:54.531Z,14.52
2022-08-30T02:03:22.880Z,14.42
2022-08-30T02:05:50.776Z,14.53
2022-08-30T02:08:18.753Z,14.42
2022-08-30T02:10:48.112Z,14.48
2022-08-30T02:13:16.046Z,14.39
2022-08-30T02:15:44.057Z,14.29
2022-08-30T02:18:11.965Z,14.13
2022-08-30T02:20:41.112Z,14.23
2022-08-30T02:23:11.364Z,14.10
2022-08-30T02:25:50.217Z,13.89
2022-08-30T02:28:19.802Z,13.92
2022-08-30T02:30:48.938Z,13.88
2022-08-30T02:33:17.067Z,13.66
2022-08-30T02:35:45.140Z,13.54
2022-08-30T02:38:13.982Z,13.31
2022-08-30T02:40:42.158Z,13.44
2022-08-30T02:43:11.611Z,13.25
2022-08-30T02:45:39.603Z,13.49
2022-08-30T02:48:07.455Z,13.36
2022-08-30T02:50:35.443Z,13.10
2022-08-30T02:53:03.392Z,12.89
2022-08-30T02:55:31.482Z,12.90
2022-08-30T02:57:59.303Z,12.73
2022-08-30T03:00:28.530Z,12.66
2022-08-30T03:02:56.506Z,12.62
2022-08-30T03:05:24.572Z,12.74
2022-08-30T03:07:52.631Z,12.75
2022-08-30T03:10:20.555Z,12.73
2022-08-30T03:12:48.991Z,12.50
2022-08-30T03:15:17.760Z,12.37
2022-08-30T03:17:47.921Z,12.21
2022-08-30T03:20:16.199Z,12.10
2022-08-30T03:22:44.185Z,12.10
2022-08-30T03:25:12.847Z,12.07
2022-08-30T03:27:40.935Z,12.22
2022-08-30T03:30:10.524Z,12.27
2022-08-30T03:32:38.853Z,12.34
2022-08-30T03:35:09.656Z,12.06
2022-08-30T03:37:37.896Z,12.27
2022-08-30T03:40:08.008Z,12.19
2022-08-30T03:42:36.118Z,12.11
2022-08-30T03:45:06.631Z,12.01
2022-08-30T03:47:34.703Z,12.16
2022-08-30T03:50:03.056Z,12.18
2022-08-30T03:52:32.540Z,12.24
2022-08-30T03:55:01.224Z,12.21
2022-08-30T03:57:30.439Z,12.09
2022-08-30T03:59:59.862Z,12.00
2022-08-30T04:02:28.436Z,12.22
2022-08-30T04:04:56.532Z,12.10
2022-08-30T04:07:24.511Z,12.05
2022-08-30T04:09:53.839Z,11.94
2022-08-30T04:12:22.844Z,11.86
2022-08-30T04:14:51.509Z,11.55
2022-08-30T04:17:19.872Z,11.68
2022-08-30T04:19:47.736Z,11.63
2022-08-30T04:22:15.679Z,11.49
2022-08-30T04:24:43.496Z,11.25
2022-08-30T04:27:12.809Z,11.37
2022-08-30T04:29:40.742Z,11.59
2022-08-30T04:32:08.831Z,11.58
2022-08-30T04:34:36.830Z,11.57
2022-08-30T04:37:04.691Z,11.31
2022-08-30T04:39:33.337Z,11.06
2022-08-30T04:42:03.269Z,10.91
2022-08-30T04:44:32.991Z,10.95
2022-08-30T04:47:00.907Z,11.23
2022-08-30T04:49:28.986Z,11.42
2022-08-30T04:51:56.991Z,11.38
2022-08-30T04:54:24.916Z,11.56
2022-08-30T04:56:54.700Z,11.36
2022-08-30T04:59:24.077Z,11.21
2022-08-30T05:01:53.417Z,11.37
2022-08-30T05:04:21.493Z,11.24
2022-08-30T05:06:49.286Z,11.25
2022-08-30T05:09:17.643Z,11.03
2022-08-30T05:11:46.464Z,11.11
2022-08-30T05:14:14.663Z,11.30
2022-08-30T05:16:42.897Z,11.12
2022-08-30T05:19:12.266Z,11.33
2022-08-30T05:21:41.812Z,11.37
2022-08-30T05:24:09.739Z,11.42
2022-08-30T05:26:39.892Z,11.66
2022-08-30T05:29:08.682Z,11.79
2022-08-30T05:31:37.433Z,11.84
2022-08-30T05:34:06.260Z,12.07
2022-08-30T05:36:37.867Z,12.24
2022-08-30T05:39:07.520Z,12.23
2022-08-30T05:41:39.225Z,12.34
2022-08-30T05:44:09.403Z,12.40
2022-08-30T05:46:39.512Z,12.31
2022-08-30T05:49:08.675Z,12.40
2022-08-30T05:51:43.197Z,12.53
2022-08-30T05:54:13.585Z,12.56
2022-08-30T05:56:43.374Z,12.67
2022-08-30T05:59:11.413Z,12.57
2022-08-30T06:01:41.409Z,12.72
2022-08-30T06:04:10.939Z,12.88
2022-08-30T06:06:45.065Z,12.97
2022-08-30T06:09:16.424Z,13.22
2022-08-30T06:11:44.847Z,13.21
2022-08-30T06:14:14.293Z,13.41
2022-08-30T06:16:44.146Z,13.40
2022-08-30T06:19:12.943Z,13.58
2022-08-30T06:21:42.782Z,13.68
2022-08-30T06:24:12.552Z,13.82
2022-08-30T06:26:44.345Z,14.10
2022-08-30T06:29:14.610Z,14.60
2022-08-30T06:31:42.751Z,15.45
2022-08-30T06:34:10.864Z,16.10
2022-08-30T06:36:43.361Z,16.82
2022-08-30T06:39:11.736Z,17.44
2022-08-30T06:41:42.144Z,17.49
2022-08-30T06:44:11.240Z,18.05
2022-08-30T06:46:40.056Z,17.83
2022-08-30T06:49:17.312Z,18.62
2022-08-30T06:51:51.517Z,18.97
2022-08-30T06:54:21.693Z,18.70
2022-08-30T06:56:58.247Z,19.43
2022-08-30T06:59:28.587Z,19.92
2022-08-30T07:01:57.988Z,19.90
2022-08-30T07:04:36.628Z,19.54
2022-08-30T07:07:05.988Z,20.11
2022-08-30T07:09:35.498Z,20.25
2022-08-30T07:12:04.425Z,20.49
2022-08-30T07:14:33.348Z,20.68
2022-08-30T07:17:01.609Z,20.60
2022-08-30T07:20:03.519Z,21.00
2022-08-30T07:22:33.535Z,20.86
2022-08-30T07:25:02.286Z,21.61
2022-08-30T07:27:32.829Z,22.68
2022-08-30T07:30:02.686Z,21.84
2022-08-30T07:32:30.859Z,21.02
2022-08-30T07:35:02.368Z,20.95
2022-08-30T07:37:33.123Z,20.60
2022-08-30T07:40:02.034Z,21.36
2022-08-30T07:42:30.208Z,21.44
2022-08-30T07:44:58.247Z,22.15
2022-08-30T07:47:26.188Z,21.75
2022-08-30T07:49:54.185Z,21.85
2022-08-30T07:52:22.280Z,22.25
2022-08-30T07:54:52.820Z,21.58
2022-08-30T07:57:20.935Z,21.37
2022-08-30T07:59:49.809Z,22.28
2022-08-30T08:02:19.050Z,21.85
2022-08-30T08:04:48.549Z,22.16
2022-08-30T08:07:16.776Z,22.39
2022-08-30T08:09:46.054Z,21.69
2022-08-30T08:12:15.309Z,22.49
2022-08-30T08:14:43.146Z,22.29
2022-08-30T08:17:11.098Z,22.59
2022-08-30T08:19:39.129Z,22.65
2022-08-30T08:22:20.439Z,21.95
2022-08-30T08:24:52.007Z,21.78
2022-08-30T08:27:24.762Z,22.32
2022-08-30T08:29:52.689Z,22.67
2022-08-30T08:32:20.663Z,22.64
2022-08-30T08:34:50.881Z,23.05
2022-08-30T08:37:20.795Z,22.79
2022-08-30T08:39:52.459Z,22.99
2022-08-30T08:42:32.971Z,22.64
2022-08-30T08:45:10.191Z,22.85
2022-08-30T08:47:48.173Z,23.21
2022-08-30T08:50:21.421Z,23.00
2022-08-30T08:53:20.409Z,23.27
2022-08-30T08:55:54.748Z,23.09
2022-08-30T08:58:27.041Z,22.95
2022-08-30T09:00:56.704Z,22.51
2022-08-30T09:03:27.485Z,23.30
2022-08-30T09:05:57.452Z,23.36
2022-08-30T09:08:40.500Z,23.02
2022-08-30T09:11:16.159Z,23.28
2022-08-30T09:13:45.355Z,24.26
2022-08-30T09:16:51.152Z,23.39
2022-08-30T09:19:35.068Z,22.92
2022-08-30T09:22:05.786Z,24.10
2022-08-30T09:24:42.878Z,24.49
2022-08-30T09:27:20.376Z,23.78
2022-08-30T09:29:56.889Z,25.18
2022-08-30T09:32:31.437Z,25.67
2022-08-30T09:34:59.876Z,25.30
2022-08-30T09:37:50.171Z,25.77
2022-08-30T09:40:26.618Z,24.42
2022-08-30T09:43:07.611Z,24.60
2022-08-30T09:45:40.329Z,24.93
2022-08-30T09:48:33.001Z,25.00
2022-08-30T09:51:35.452Z,24.36
2022-08-30T09:54:17.858Z,22.83
2022-08-30T09:57:02.003Z,23.60
2022-08-30T09:59:47.416Z,25.09
2022-08-30T10:02:38.265Z,25.60
2022-08-30T10:05:16.836Z,26.45
2022-08-30T10:07:56.949Z,24.71
2022-08-30T10:10:36.160Z,24.65
2022-08-30T10:13:27.265Z,25.62
2022-08-30T10:16:03.139Z,25.15
2022-08-30T10:18:42.634Z,24.71
2022-08-30T10:21:19.199Z,24.83
2022-08-30T10:23:52.116Z,24.88
2022-08-30T10:26:29.986Z,25.40
2022-08-30T10:29:02.699Z,26.41
2022-08-30T10:31:46.208Z,25.92
2022-08-30T10:34:21.504Z,26.24
2022-08-30T10:36:56.227Z,26.05
2022-08-30T10:39:28.309Z,25.02
2022-08-30T10:42:04.269Z,25.61
2022-08-30T10:44:39.874Z,24.80
2022-08-30T10:47:23.251Z,25.10
2022-08-30T10:50:01.698Z,25.09
2022-08-30T10:52:37.602Z,25.47
2022-08-30T10:55:10.792Z,25.83
2022-08-30T10:57:43.061Z,26.23
2022-08-30T11:00:14.395Z,25.85
2022-08-30T11:03:30.394Z,26.08
2022-08-30T11:06:16.542Z,26.88
2022-08-30T11:09:05.514Z,27.71
2022-08-30T11:11:45.790Z,26.79
2022-08-30T11:14:18.391Z,27.49
2022-08-30T11:16:48.734Z,27.47
2022-08-30T11:19:21.968Z,27.47
2022-08-30T11:21:52.319Z,27.40
2022-08-30T11:24:24.606Z,26.01
2022-08-30T11:27:01.695Z,26.57
2022-08-30T11:29:35.181Z,26.42
2022-08-30T11:32:38.845Z,27.11
2022-08-30T11:35:11.217Z,27.00
2022-08-30T11:38:02.435Z,26.80
2022-08-30T11:40:50.076Z,26.51
2022-08-30T11:43:55.540Z,26.34
2022-08-30T11:46:39.761Z,27.09
2022-08-30T11:49:50.193Z,26.38
2022-08-30T11:52:50.063Z,26.36
2022-08-30T11:55:43.034Z,27.10
2022-08-30T11:58:25.903Z,27.35
2022-08-30T12:01:49.701Z,26.96
2022-08-30T12:04:29.573Z,26.79
2022-08-30T12:06:59.893Z,27.12
2022-08-30T12:10:06.841Z,27.43
2022-08-30T12:13:15.269Z,26.59
2022-08-30T12:16:05.190Z,26.50
2022-08-30T12:18:44.453Z,27.19
2022-08-30T12:21:28.932Z,27.83
2022-08-30T12:24:04.142Z,27.57
2022-08-30T12:26:37.360Z,25.20
2022-08-30T12:29:19.961Z,26.41
2022-08-30T12:31:54.863Z,27.43
2022-08-30T12:34:27.435Z,27.60
2022-08-30T12:37:00.795Z,27.58
2022-08-30T12:39:31.571Z,26.72
2022-08-30T12:42:17.705Z,26.52
2022-08-30T12:44:50.083Z,25.63
2022-08-30T12:47:25.568Z,26.20
2022-08-30T12:49:55.104Z,26.28
2022-08-30T12:52:32.377Z,28.54
2022-08-30T12:55:13.549Z,27.75
2022-08-30T12:58:00.667Z,28.41
2022-08-30T13:00:31.938Z,29.09
2022-08-30T13:03:25.858Z,29.20
2022-08-30T13:05:54.855Z,28.81
2022-08-30T13:08:27.323Z,29.04
2022-08-30T13:10:59.128Z,28.11
2022-08-30T13:13:37.507Z,25.85
2022-08-30T13:16:26.294Z,25.15
2022-08-30T13:18:57.526Z,27.50
2022-08-30T13:21:29.440Z,28.67
2022-08-30T13:24:00.019Z,28.57
2022-08-30T13:26:41.226Z,26.31
2022-08-30T13:29:22.941Z,25.09
2022-08-30T13:31:52.667Z,26.45
2022-08-30T13:34:23.511Z,27.21
2022-08-30T13:36:54.769Z,27.75
2022-08-30T13:39:22.781Z,27.74
2022-08-30T13:41:51.565Z,28.85
2022-08-30T13:44:20.372Z,27.10
2022-08-30T13:46:55.938Z,25.25
2022-08-30T13:49:45.820Z,24.13
2022-08-30T13:52:21.469Z,23.87
2022-08-30T13:54:50.922Z,25.61
2022-08-30T14:00:14.485Z,27.71
2022-08-30T14:02:47.777Z,28.60
2022-08-30T14:05:46.734Z,27.81
2022-08-30T14:11:19.431Z,28.72
2022-08-30T14:16:40.132Z,28.22
2022-08-30T14:19:11.518Z,28.13
2022-08-30T14:21:49.033Z,27.25
2022-08-30T14:24:20.035Z,27.27
2022-08-30T14:26:51.475Z,28.00
2022-08-30T14:29:21.921Z,27.48
2022-08-30T14:31:50.253Z,27.16
2022-08-30T14:34:19.442Z,27.85
2022-08-30T14:36:48.728Z,28.08
2022-08-30T14:39:20.654Z,28.59
2022-08-30T14:41:51.349Z,28.51
2022-08-30T14:44:23.588Z,28.97
2022-08-30T14:46:52.408Z,28.56
2022-08-30T14:49:22.462Z,28.29
2022-08-30T14:51:53.745Z,26.81
2022-08-30T14:54:25.575Z,25.80
2022-08-30T14:56:56.321Z,27.11
2022-08-30T14:59:25.425Z,27.99
2022-08-30T15:01:53.437Z,26.43
2022-08-30T15:04:21.843Z,26.18
2022-08-30T15:06:51.637Z,25.02
2022-08-30T15:09:28.164Z,25.69
2022-08-30T15:11:59.586Z,27.13
2022-08-30T15:14:28.267Z,27.24
2022-08-30T15:16:58.226Z,27.56
2022-08-30T15:19:26.902Z,26.89
2022-08-30T15:22:01.831Z,27.07
2022-08-30T15:24:31.496Z,25.51
2022-08-30T15:27:03.248Z,24.52
2022-08-30T15:29:31.906Z,24.38
2022-08-30T15:32:01.763Z,23.73
2022-08-30T15:34:30.163Z,23.69
2022-08-30T15:36:58.553Z,23.52
2022-08-30T15:39:27.085Z,23.06
2022-08-30T15:42:00.725Z,23.32
2022-08-30T15:44:30.108Z,24.48
2022-08-30T15:46:58.329Z,25.85
2022-08-30T15:49:26.353Z,26.26
2022-08-30T15:51:56.616Z,25.77
2022-08-30T15:54:25.337Z,25.39
2022-08-30T15:56:59.740Z,26.30
2022-08-30T15:59:33.060Z,24.35
2022-08-30T16:02:01.226Z,23.20
2022-08-30T16:04:29.763Z,22.78
2022-08-30T16:06:57.846Z,22.44
2022-08-30T16:09:30.073Z,22.44
2022-08-30T16:12:01.313Z,23.99
2022-08-30T16:14:30.884Z,24.79
2022-08-30T16:16:59.412Z,25.82
2022-08-30T16:19:27.863Z,25.95
2022-08-30T16:21:56.937Z,25.45
2022-08-30T16:24:25.930Z,25.08
2022-08-30T16:26:54.101Z,24.62
2022-08-30T16:29:22.545Z,24.50
2022-08-30T16:31:55.070Z,23.35
2022-08-30T16:34:23.159Z,22.95
2022-08-30T16:36:53.698Z,22.52
2022-08-30T16:39:22.299Z,22.30
2022-08-30T16:41:51.390Z,22.16
2022-08-30T16:44:19.359Z,21.93
2022-08-30T16:46:53.277Z,22.01
2022-08-30T16:49:25.584Z,22.40
2022-08-30T16:51:54.428Z,22.88
2022-08-30T16:54:23.412Z,22.94
2022-08-30T16:56:51.482Z,22.85
2022-08-30T16:59:19.707Z,23.03
2022-08-30T17:01:48.250Z,22.62
2022-08-30T17:04:20.040Z,22.63
2022-08-30T17:07:05.967Z,23.04
2022-08-30T17:09:35.568Z,22.48
2022-08-30T17:12:04.107Z,22.20
2022-08-30T17:14:32.411Z,22.31
2022-08-30T17:17:01.365Z,22.31
2022-08-30T17:19:29.439Z,22.84
2022-08-30T17:21:58.129Z,22.61
2022-08-30T17:24:28.213Z,22.65
2022-08-30T17:26:56.651Z,22.79
2022-08-30T17:29:26.385Z,22.58
2022-08-30T17:31:55.176Z,21.93
2022-08-30T17:34:24.063Z,21.86
2022-08-30T17:36:57.146Z,21.63
2022-08-30T17:39:28.659Z,21.42
2022-08-30T17:41:56.829Z,21.16
2022-08-30T17:44:29.002Z,20.71
2022-08-30T17:46:58.503Z,20.53
2022-08-30T17:49:29.598Z,20.44
2022-08-30T17:51:58.493Z,20.28
2022-08-30T17:54:29.236Z,20.14
2022-08-30T17:56:58.538Z,20.06
2022-08-30T17:59:29.265Z,19.96
2022-08-30T18:02:01.709Z,19.90
2022-08-30T18:04:30.448Z,19.77
2022-08-30T18:06:58.656Z,19.75
2022-08-30T18:09:33.663Z,19.56
2022-08-30T18:12:02.103Z,19.56
2022-08-30T18:14:30.069Z,19.49
2022-08-30T18:16:58.496Z,19.32
2022-08-30T18:19:27.918Z,19.21
2022-08-30T18:21:57.862Z,19.13
2022-08-30T18:24:29.280Z,18.95
2022-08-30T18:26:57.932Z,18.94
2022-08-30T18:29:31.213Z,18.81
2022-08-30T18:31:59.842Z,18.79
2022-08-30T18:34:28.262Z,18.82
2022-08-30T18:36:56.832Z,18.75
2022-08-30T18:39:25.308Z,18.69
2022-08-30T18:44:43.925Z,18.44
2022-08-30T18:47:13.206Z,18.45
2022-08-30T18:49:46.553Z,18.45
2022-08-30T18:52:14.453Z,18.43
2022-08-30T18:54:52.454Z,18.31
2022-08-30T18:57:23.016Z,18.19
2022-08-30T18:59:51.193Z,18.21
2022-08-30T19:02:19.197Z,18.15
2022-08-30T19:04:49.056Z,18.07
2022-08-30T19:07:21.529Z,18.00
2022-08-30T19:09:55.540Z,17.93
2022-08-30T19:12:32.555Z,17.91
2022-08-30T19:15:00.786Z,17.85
2022-08-30T19:17:30.090Z,17.81
2022-08-30T19:19:58.385Z,17.70
2022-08-30T19:22:36.081Z,17.74
2022-08-30T19:25:24.213Z,17.59
2022-08-30T19:27:58.713Z,17.44
2022-08-30T19:30:29.806Z,17.55
2022-08-30T19:32:58.567Z,17.43
2022-08-30T19:35:51.259Z,17.31
2022-08-30T19:38:38.024Z,17.34
2022-08-30T19:41:32.551Z,17.38
2022-08-30T19:47:00.094Z,17.12
2022-08-30T19:49:29.477Z,17.11
2022-08-30T19:51:58.084Z,17.22
2022-08-30T19:54:39.684Z,17.17
2022-08-30T19:57:11.302Z,17.11
2022-08-30T19:59:48.715Z,17.11
2022-08-30T20:02:17.912Z,17.09
2022-08-30T20:04:47.973Z,17.03
2022-08-30T20:07:25.219Z,17.15
2022-08-30T20:09:55.881Z,17.08
2022-08-30T20:12:24.016Z,17.17
2022-08-30T20:14:59.254Z,17.01
2022-08-30T20:17:42.471Z,17.01
2022-08-30T20:20:20.877Z,16.87
2022-08-30T20:22:54.347Z,16.84
2022-08-30T20:24:29.072Z,18.67
2022-08-30T20:25:25.239Z,16.84
2022-08-30T20:27:59.574Z,16.88
2022-08-30T20:30:31.068Z,16.95
2022-08-30T20:33:07.105Z,16.88
2022-08-30T20:35:38.664Z,16.72
2022-08-30T20:38:07.268Z,16.63
2022-08-30T20:40:36.226Z,16.82
2022-08-30T20:43:05.175Z,16.81
2022-08-30T20:45:35.854Z,16.72
2022-08-30T20:48:06.047Z,16.64
2022-08-30T20:50:33.880Z,16.78
2022-08-30T20:53:03.500Z,16.65
2022-08-30T20:55:31.649Z,16.73
2022-08-30T20:57:59.865Z,16.70
2022-08-30T21:00:30.331Z,16.85
2022-08-30T21:03:01.089Z,16.59
2022-08-30T21:05:30.276Z,16.59
2022-08-30T21:08:00.492Z,16.54
2022-08-30T21:10:40.662Z,16.33
2022-08-30T21:13:09.326Z,16.32
2022-08-30T21:15:39.834Z,16.43
2022-08-30T21:18:10.429Z,16.34
2022-08-30T21:20:39.603Z,16.34
2022-08-30T21:23:09.044Z,16.17
2022-08-30T21:25:39.782Z,16.27
2022-08-30T21:28:08.408Z,16.30
2022-08-30T21:30:39.200Z,16.54
2022-08-30T21:33:09.842Z,16.45
2022-08-30T21:35:56.455Z,16.50
2022-08-30T21:38:24.917Z,16.56
2022-08-30T21:40:53.905Z,16.67
2022-08-30T21:43:23.032Z,16.51
2022-08-30T21:45:53.831Z,16.72
2022-08-30T21:48:23.306Z,16.64
2022-08-30T21:50:51.335Z,16.53
2022-08-30T21:53:19.474Z,16.57
2022-08-30T21:55:48.034Z,16.49
2022-08-30T21:58:16.694Z,16.42
2022-08-30T22:00:44.687Z,16.48
2022-08-30T22:03:12.726Z,16.50
2022-08-30T22:05:45.969Z,16.32
2022-08-30T22:08:13.891Z,16.30
2022-08-30T22:10:44.848Z,16.40
2022-08-30T22:13:14.101Z,16.26
2022-08-30T22:15:42.366Z,16.29
2022-08-30T22:18:10.247Z,16.26
2022-08-30T22:20:38.131Z,16.29
2022-08-30T22:23:07.864Z,16.31
2022-08-30T22:25:36.796Z,16.36
2022-08-30T22:28:06.966Z,16.29
2022-08-30T22:30:34.938Z,16.32
2022-08-30T22:33:02.979Z,16.29
2022-08-30T22:35:30.835Z,16.33
2022-08-30T22:37:59.048Z,16.35
2022-08-30T22:40:28.558Z,16.40
2022-08-30T22:42:57.518Z,16.45
2022-08-30T22:45:26.265Z,16.39
2022-08-30T22:47:54.345Z,16.36
2022-08-30T22:50:23.266Z,16.29
2022-08-30T22:52:51.259Z,16.28
2022-08-30T22:55:19.232Z,16.23
2022-08-30T22:57:48.584Z,16.34
2022-08-30T23:00:17.921Z,16.35
2022-08-30T23:02:54.033Z,16.63
2022-08-30T23:05:24.185Z,16.58
2022-08-30T23:08:02.060Z,16.62
2022-08-30T23:10:32.849Z,16.64
2022-08-30T23:13:04.175Z,16.63
2022-08-30T23:15:34.137Z,16.71
2022-08-30T23:18:02.439Z,16.68
2022-08-30T23:20:30.338Z,16.62
2022-08-30T23:23:00.106Z,16.65
2022-08-30T23:25:49.665Z,16.63
2022-08-30T23:28:40.405Z,16.65
2022-08-30T23:31:31.354Z,16.62
2022-08-30T23:34:17.169Z,16.62
2022-08-30T23:37:02.608Z,16.50
2022-08-30T23:39:48.394Z,16.48
2022-08-30T23:42:34.270Z,16.50
2022-08-30T23:45:21.019Z,16.39
2022-08-30T23:48:06.454Z,16.40
2022-08-30T23:50:51.850Z,16.32
2022-08-30T23:53:37.261Z,16.41
2022-08-30T23:56:22.671Z,16.35
2022-08-30T23:59:08.119Z,16.30
